TimeEST,TemperatureF,Dew PointF,Humidity,Sea Level PressureIn,VisibilityMPH,Wind Direction,Wind SpeedMPH,Gust SpeedMPH,PrecipitationIn,Events,Conditions,WindDirDegrees,DateUTC
12:53 AM,25.0,12.0,58,30.50,10.0,North,11.5,18.4,N/A,,Partly Cloudy,350,2013-11-24 05:53:00
1:53 AM,24.1,12.0,60,30.51,10.0,North,11.5,20.7,N/A,,Clear,360,2013-11-24 06:53:00
2:53 AM,23.0,12.0,63,30.53,10.0,North,11.5,-,N/A,,Clear,360,2013-11-24 07:53:00
3:53 AM,21.9,12.9,68,30.53,10.0,North,6.9,-,N/A,,Mostly Cloudy,360,2013-11-24 08:53:00
4:53 AM,23.0,12.9,65,30.54,10.0,NNE,9.2,-,0.00,,Mostly Cloudy,30,2013-11-24 09:53:00
5:53 AM,21.0,3.0,46,30.57,10.0,North,10.4,-,N/A,,Clear,360,2013-11-24 10:53:00
6:53 AM,19.9,3.9,50,30.60,10.0,North,6.9,-,N/A,,Clear,10,2013-11-24 11:53:00
7:53 AM,19.9,5.0,52,30.62,10.0,NNE,5.8,-,N/A,,Clear,20,2013-11-24 12:53:00
8:53 AM,21.9,6.1,51,30.65,10.0,NNE,8.1,-,N/A,,Clear,20,2013-11-24 13:53:00
9:53 AM,24.1,5.0,44,30.66,10.0,North,11.5,-,N/A,,Clear,10,2013-11-24 14:53:00
10:53 AM,27.0,5.0,39,30.66,10.0,North,9.2,-,N/A,,Clear,10,2013-11-24 15:53:00
11:53 AM,28.0,5.0,38,30.63,10.0,North,10.4,-,N/A,,Clear,10,2013-11-24 16:53:00
12:53 PM,28.9,5.0,36,30.60,10.0,NNE,10.4,16.1,N/A,,Clear,30,2013-11-24 17:53:00
1:53 PM,30.0,6.1,36,30.57,10.0,North,8.1,-,N/A,,Clear,350,2013-11-24 18:53:00
2:53 PM,30.9,3.9,32,30.56,10.0,North,10.4,-,N/A,,Clear,360,2013-11-24 19:53:00
3:53 PM,30.0,3.9,33,30.56,10.0,NNE,8.1,-,N/A,,Clear,30,2013-11-24 20:53:00
4:53 PM,28.9,3.9,35,30.55,10.0,North,9.2,-,N/A,,Clear,10,2013-11-24 21:53:00
5:53 PM,27.0,5.0,39,30.55,10.0,NNE,4.6,-,N/A,,Clear,30,2013-11-24 22:53:00
6:53 PM,26.1,8.1,47,30.57,10.0,North,3.5,-,N/A,,Clear,10,2013-11-24 23:53:00
7:53 PM,25.0,8.1,49,30.56,10.0,NNE,4.6,-,N/A,,Clear,30,2013-11-25 00:53:00
8:53 PM,24.1,7.0,48,30.56,10.0,NNE,6.9,-,N/A,,Clear,30,2013-11-25 01:53:00
9:53 PM,23.0,8.1,53,30.54,10.0,NE,5.8,-,N/A,,Clear,40,2013-11-25 02:53:00
10:53 PM,24.1,7.0,48,30.53,10.0,NE,3.5,-,N/A,,Clear,50,2013-11-25 03:53:00
11:53 PM,23.0,8.1,53,30.52,10.0,NE,4.6,-,N/A,,Clear,50,2013-11-25 04:53:00